sensor_id;sensor_type;location;lat;lon;timestamp;P1;durP1;ratioP1;P2;durP2;ratioP2
48743;SDS011;34538;48.836;9.174;2023-04-06T00:00:33;18.70;;;8.48;;
48743;SDS011;34538;48.836;9.174;2023-04-06T00:02:59;14.85;;;6.80;;
48743;SDS011;34538;48.836;9.174;2023-04-06T00:05:26;11.73;;;7.55;;
48743;SDS011;34538;48.836;9.174;2023-04-06T00:07:56;14.40;;;8.40;;
48743;SDS011;34538;48.836;9.174;2023-04-06T00:10:23;16.65;;;8.32;;
48743;SDS011;34538;48.836;9.174;2023-04-06T00:12:51;13.32;;;7.55;;
48743;SDS011;34538;48.836;9.174;2023-04-06T00:15:18;11.68;;;7.15;;
48743;SDS011;34538;48.836;9.174;2023-04-06T00:17:45;14.03;;;7.93;;
48743;SDS011;34538;48.836;9.174;2023-04-06T00:20:12;12.20;;;7.18;;
48743;SDS011;34538;48.836;9.174;2023-04-06T00:22:39;15.70;;;7.78;;
48743;SDS011;34538;48.836;9.174;2023-04-06T00:25:07;13.90;;;7.85;;
48743;SDS011;34538;48.836;9.174;2023-04-06T00:27:35;14.10;;;7.63;;
48743;SDS011;34538;48.836;9.174;2023-04-06T00:30:02;13.65;;;7.38;;
48743;SDS011;34538;48.836;9.174;2023-04-06T00:32:30;14.15;;;7.70;;
48743;SDS011;34538;48.836;9.174;2023-04-06T00:34:57;13.03;;;7.63;;
48743;SDS011;34538;48.836;9.174;2023-04-06T00:37:24;12.80;;;7.73;;
48743;SDS011;34538;48.836;9.174;2023-04-06T00:39:51;14.73;;;7.72;;
48743;SDS011;34538;48.836;9.174;2023-04-06T00:42:19;16.70;;;7.87;;
48743;SDS011;34538;48.836;9.174;2023-04-06T00:44:50;13.63;;;7.90;;
48743;SDS011;34538;48.836;9.174;2023-04-06T00:47:18;12.93;;;7.83;;
48743;SDS011;34538;48.836;9.174;2023-04-06T00:49:45;13.10;;;7.37;;
48743;SDS011;34538;48.836;9.174;2023-04-06T00:52:12;12.60;;;7.43;;
48743;SDS011;34538;48.836;9.174;2023-04-06T00:54:40;15.00;;;8.20;;
48743;SDS011;34538;48.836;9.174;2023-04-06T00:57:08;14.10;;;7.53;;
48743;SDS011;34538;48.836;9.174;2023-04-06T00:59:36;15.03;;;8.13;;
48743;SDS011;34538;48.836;9.174;2023-04-06T01:04:41;11.20;;;7.27;;
48743;SDS011;34538;48.836;9.174;2023-04-06T01:07:14;12.90;;;7.10;;
48743;SDS011;34538;48.836;9.174;2023-04-06T01:09:50;16.70;;;7.97;;
48743;SDS011;34538;48.836;9.174;2023-04-06T01:12:22;13.60;;;7.83;;
48743;SDS011;34538;48.836;9.174;2023-04-06T01:14:50;13.97;;;8.33;;
48743;SDS011;34538;48.836;9.174;2023-04-06T01:17:17;12.87;;;7.93;;
48743;SDS011;34538;48.836;9.174;2023-04-06T01:19:45;16.23;;;7.60;;
48743;SDS011;34538;48.836;9.174;2023-04-06T01:22:22;14.27;;;8.30;;
48743;SDS011;34538;48.836;9.174;2023-04-06T01:24:56;16.50;;;8.30;;
48743;SDS011;34538;48.836;9.174;2023-04-06T01:27:32;12.00;;;7.27;;
48743;SDS011;34538;48.836;9.174;2023-04-06T01:30:11;12.60;;;7.87;;
48743;SDS011;34538;48.836;9.174;2023-04-06T01:33:00;13.20;;;7.77;;
48743;SDS011;34538;48.836;9.174;2023-04-06T01:35:47;13.13;;;7.33;;
48743;SDS011;34538;48.836;9.174;2023-04-06T01:38:18;13.13;;;7.07;;
48743;SDS011;34538;48.836;9.174;2023-04-06T01:40:47;14.37;;;7.73;;
48743;SDS011;34538;48.836;9.174;2023-04-06T01:43:15;14.57;;;7.77;;
48743;SDS011;34538;48.836;9.174;2023-04-06T01:46:14;14.27;;;7.70;;
48743;SDS011;34538;48.836;9.174;2023-04-06T01:48:43;12.77;;;7.47;;
48743;SDS011;34538;48.836;9.174;2023-04-06T01:51:19;12.87;;;7.20;;
48743;SDS011;34538;48.836;9.174;2023-04-06T01:53:53;12.83;;;6.77;;
48743;SDS011;34538;48.836;9.174;2023-04-06T01:56:24;14.77;;;7.40;;
48743;SDS011;34538;48.836;9.174;2023-04-06T01:59:00;11.57;;;6.83;;
48743;SDS011;34538;48.836;9.174;2023-04-06T02:01:34;15.73;;;6.77;;
48743;SDS011;34538;48.836;9.174;2023-04-06T02:04:02;11.90;;;6.73;;
48743;SDS011;34538;48.836;9.174;2023-04-06T02:06:29;10.23;;;6.33;;
48743;SDS011;34538;48.836;9.174;2023-04-06T02:08:58;10.50;;;6.73;;
48743;SDS011;34538;48.836;9.174;2023-04-06T02:11:25;10.37;;;6.57;;
48743;SDS011;34538;48.836;9.174;2023-04-06T02:13:54;12.93;;;6.23;;
48743;SDS011;34538;48.836;9.174;2023-04-06T02:16:25;12.73;;;6.63;;
48743;SDS011;34538;48.836;9.174;2023-04-06T02:18:52;15.40;;;7.60;;
48743;SDS011;34538;48.836;9.174;2023-04-06T02:21:19;13.03;;;7.13;;
48743;SDS011;34538;48.836;9.174;2023-04-06T02:23:46;12.83;;;7.60;;
48743;SDS011;34538;48.836;9.174;2023-04-06T02:26:15;11.43;;;7.20;;
48743;SDS011;34538;48.836;9.174;2023-04-06T02:28:43;15.20;;;7.40;;
48743;SDS011;34538;48.836;9.174;2023-04-06T02:31:10;13.17;;;7.70;;
48743;SDS011;34538;48.836;9.174;2023-04-06T02:33:37;14.63;;;7.33;;
48743;SDS011;34538;48.836;9.174;2023-04-06T02:36:05;15.27;;;7.53;;
48743;SDS011;34538;48.836;9.174;2023-04-06T02:38:32;13.97;;;7.97;;
48743;SDS011;34538;48.836;9.174;2023-04-06T02:41:01;12.63;;;7.20;;
48743;SDS011;34538;48.836;9.174;2023-04-06T02:43:30;12.30;;;6.73;;
48743;SDS011;34538;48.836;9.174;2023-04-06T02:46:04;13.60;;;7.07;;
48743;SDS011;34538;48.836;9.174;2023-04-06T02:48:35;13.15;;;7.20;;
48743;SDS011;34538;48.836;9.174;2023-04-06T02:51:03;12.00;;;7.30;;
48743;SDS011;34538;48.836;9.174;2023-04-06T02:53:30;18.83;;;8.27;;
48743;SDS011;34538;48.836;9.174;2023-04-06T02:55:57;14.37;;;7.60;;
48743;SDS011;34538;48.836;9.174;2023-04-06T02:58:32;13.43;;;7.17;;
48743;SDS011;34538;48.836;9.174;2023-04-06T03:00:59;15.10;;;8.20;;
48743;SDS011;34538;48.836;9.174;2023-04-06T03:03:26;18.37;;;8.33;;
48743;SDS011;34538;48.836;9.174;2023-04-06T03:05:54;13.57;;;7.20;;
48743;SDS011;34538;48.836;9.174;2023-04-06T03:08:27;15.70;;;8.03;;
48743;SDS011;34538;48.836;9.174;2023-04-06T03:10:54;15.33;;;8.83;;
48743;SDS011;34538;48.836;9.174;2023-04-06T03:13:29;18.50;;;9.30;;
48743;SDS011;34538;48.836;9.174;2023-04-06T03:15:58;14.23;;;8.03;;
48743;SDS011;34538;48.836;9.174;2023-04-06T03:18:26;12.97;;;8.07;;
48743;SDS011;34538;48.836;9.174;2023-04-06T03:20:55;13.43;;;7.73;;
48743;SDS011;34538;48.836;9.174;2023-04-06T03:23:27;14.13;;;8.03;;
48743;SDS011;34538;48.836;9.174;2023-04-06T03:25:58;11.82;;;8.20;;
48743;SDS011;34538;48.836;9.174;2023-04-06T03:28:25;12.47;;;7.10;;
48743;SDS011;34538;48.836;9.174;2023-04-06T03:30:55;15.52;;;7.82;;
48743;SDS011;34538;48.836;9.174;2023-04-06T03:33:43;14.57;;;7.93;;
48743;SDS011;34538;48.836;9.174;2023-04-06T03:36:18;14.57;;;7.53;;
48743;SDS011;34538;48.836;9.174;2023-04-06T03:38:45;15.13;;;8.50;;
48743;SDS011;34538;48.836;9.174;2023-04-06T03:41:13;14.77;;;8.03;;
48743;SDS011;34538;48.836;9.174;2023-04-06T03:43:45;14.87;;;8.67;;
48743;SDS011;34538;48.836;9.174;2023-04-06T03:46:12;13.53;;;7.63;;
48743;SDS011;34538;48.836;9.174;2023-04-06T03:48:39;16.37;;;8.43;;
48743;SDS011;34538;48.836;9.174;2023-04-06T03:51:07;14.80;;;8.53;;
48743;SDS011;34538;48.836;9.174;2023-04-06T03:53:34;12.43;;;7.47;;
48743;SDS011;34538;48.836;9.174;2023-04-06T03:56:02;15.33;;;8.20;;
48743;SDS011;34538;48.836;9.174;2023-04-06T03:58:30;14.93;;;7.30;;
48743;SDS011;34538;48.836;9.174;2023-04-06T04:00:56;15.20;;;8.20;;
48743;SDS011;34538;48.836;9.174;2023-04-06T04:03:23;16.57;;;8.80;;
48743;SDS011;34538;48.836;9.174;2023-04-06T04:05:52;13.47;;;8.17;;
48743;SDS011;34538;48.836;9.174;2023-04-06T04:08:21;14.13;;;8.80;;
48743;SDS011;34538;48.836;9.174;2023-04-06T04:10:49;14.33;;;8.43;;
48743;SDS011;34538;48.836;9.174;2023-04-06T04:13:16;17.53;;;7.87;;
48743;SDS011;34538;48.836;9.174;2023-04-06T04:15:46;13.63;;;7.88;;
48743;SDS011;34538;48.836;9.174;2023-04-06T04:18:14;14.63;;;8.47;;
48743;SDS011;34538;48.836;9.174;2023-04-06T04:20:41;15.67;;;8.90;;
48743;SDS011;34538;48.836;9.174;2023-04-06T04:23:10;15.83;;;8.23;;
48743;SDS011;34538;48.836;9.174;2023-04-06T04:25:38;15.73;;;8.73;;
48743;SDS011;34538;48.836;9.174;2023-04-06T04:28:05;17.70;;;8.30;;
48743;SDS011;34538;48.836;9.174;2023-04-06T04:30:32;16.67;;;8.47;;
48743;SDS011;34538;48.836;9.174;2023-04-06T04:32:59;16.50;;;8.87;;
48743;SDS011;34538;48.836;9.174;2023-04-06T04:35:27;15.67;;;8.67;;
48743;SDS011;34538;48.836;9.174;2023-04-06T04:37:55;14.87;;;8.50;;
48743;SDS011;34538;48.836;9.174;2023-04-06T04:40:22;19.60;;;8.77;;
48743;SDS011;34538;48.836;9.174;2023-04-06T04:42:56;13.87;;;8.10;;
48743;SDS011;34538;48.836;9.174;2023-04-06T04:45:32;13.33;;;8.13;;
48743;SDS011;34538;48.836;9.174;2023-04-06T04:48:09;17.30;;;8.53;;
48743;SDS011;34538;48.836;9.174;2023-04-06T04:50:48;12.20;;;7.90;;
48743;SDS011;34538;48.836;9.174;2023-04-06T04:53:16;16.97;;;8.40;;
48743;SDS011;34538;48.836;9.174;2023-04-06T04:55:44;13.87;;;8.50;;
48743;SDS011;34538;48.836;9.174;2023-04-06T04:58:14;16.07;;;9.07;;
48743;SDS011;34538;48.836;9.174;2023-04-06T05:00:52;16.90;;;8.63;;
48743;SDS011;34538;48.836;9.174;2023-04-06T05:03:21;16.07;;;8.37;;
48743;SDS011;34538;48.836;9.174;2023-04-06T05:06:03;16.17;;;8.93;;
48743;SDS011;34538;48.836;9.174;2023-04-06T05:08:33;19.20;;;8.82;;
48743;SDS011;34538;48.836;9.174;2023-04-06T05:11:01;14.40;;;8.13;;
48743;SDS011;34538;48.836;9.174;2023-04-06T05:13:33;17.48;;;8.75;;
48743;SDS011;34538;48.836;9.174;2023-04-06T05:16:06;20.10;;;8.83;;
48743;SDS011;34538;48.836;9.174;2023-04-06T05:18:33;16.27;;;8.40;;
48743;SDS011;34538;48.836;9.174;2023-04-06T05:21:02;17.60;;;8.87;;
48743;SDS011;34538;48.836;9.174;2023-04-06T05:23:40;15.97;;;9.13;;
48743;SDS011;34538;48.836;9.174;2023-04-06T05:26:07;15.07;;;7.93;;
48743;SDS011;34538;48.836;9.174;2023-04-06T05:28:36;15.97;;;8.63;;
48743;SDS011;34538;48.836;9.174;2023-04-06T05:31:04;17.73;;;9.53;;
48743;SDS011;34538;48.836;9.174;2023-04-06T05:33:41;14.60;;;9.03;;
48743;SDS011;34538;48.836;9.174;2023-04-06T05:36:12;14.43;;;9.07;;
48743;SDS011;34538;48.836;9.174;2023-04-06T05:38:42;18.93;;;9.20;;
48743;SDS011;34538;48.836;9.174;2023-04-06T05:41:26;19.37;;;9.97;;
48743;SDS011;34538;48.836;9.174;2023-04-06T05:43:55;18.60;;;10.50;;
48743;SDS011;34538;48.836;9.174;2023-04-06T05:46:23;21.20;;;10.50;;
48743;SDS011;34538;48.836;9.174;2023-04-06T05:48:52;22.40;;;10.63;;
48743;SDS011;34538;48.836;9.174;2023-04-06T05:53:51;19.03;;;10.07;;
48743;SDS011;34538;48.836;9.174;2023-04-06T05:56:18;22.97;;;10.13;;
48743;SDS011;34538;48.836;9.174;2023-04-06T05:58:46;25.67;;;10.20;;
48743;SDS011;34538;48.836;9.174;2023-04-06T06:01:18;18.33;;;9.90;;
48743;SDS011;34538;48.836;9.174;2023-04-06T06:03:46;17.10;;;9.67;;
48743;SDS011;34538;48.836;9.174;2023-04-06T06:06:13;18.53;;;9.77;;
48743;SDS011;34538;48.836;9.174;2023-04-06T06:08:54;17.63;;;9.90;;
48743;SDS011;34538;48.836;9.174;2023-04-06T06:11:23;18.97;;;9.73;;
48743;SDS011;34538;48.836;9.174;2023-04-06T06:13:52;17.67;;;9.90;;
48743;SDS011;34538;48.836;9.174;2023-04-06T06:16:20;15.98;;;9.68;;
48743;SDS011;34538;48.836;9.174;2023-04-06T06:18:47;16.00;;;10.27;;
48743;SDS011;34538;48.836;9.174;2023-04-06T06:21:15;18.27;;;10.30;;
48743;SDS011;34538;48.836;9.174;2023-04-06T06:23:42;21.17;;;10.20;;
48743;SDS011;34538;48.836;9.174;2023-04-06T06:26:13;16.42;;;9.40;;
48743;SDS011;34538;48.836;9.174;2023-04-06T06:28:40;19.90;;;9.45;;
48743;SDS011;34538;48.836;9.174;2023-04-06T06:31:08;17.08;;;8.95;;
48743;SDS011;34538;48.836;9.174;2023-04-06T06:33:37;17.45;;;9.13;;
48743;SDS011;34538;48.836;9.174;2023-04-06T06:36:04;13.85;;;8.23;;
48743;SDS011;34538;48.836;9.174;2023-04-06T06:38:31;18.70;;;9.45;;
48743;SDS011;34538;48.836;9.174;2023-04-06T06:40:58;16.77;;;9.18;;
48743;SDS011;34538;48.836;9.174;2023-04-06T06:43:28;16.67;;;9.73;;
48743;SDS011;34538;48.836;9.174;2023-04-06T06:45:59;17.77;;;9.75;;
48743;SDS011;34538;48.836;9.174;2023-04-06T06:48:26;16.35;;;8.10;;
48743;SDS011;34538;48.836;9.174;2023-04-06T06:50:54;15.05;;;9.00;;
48743;SDS011;34538;48.836;9.174;2023-04-06T06:53:21;15.85;;;8.57;;
48743;SDS011;34538;48.836;9.174;2023-04-06T06:55:49;16.52;;;8.98;;
48743;SDS011;34538;48.836;9.174;2023-04-06T06:58:17;17.77;;;9.23;;
48743;SDS011;34538;48.836;9.174;2023-04-06T07:00:44;16.80;;;9.85;;
48743;SDS011;34538;48.836;9.174;2023-04-06T07:03:11;15.77;;;8.80;;
48743;SDS011;34538;48.836;9.174;2023-04-06T07:05:38;15.68;;;9.45;;
48743;SDS011;34538;48.836;9.174;2023-04-06T07:08:15;15.18;;;8.90;;
48743;SDS011;34538;48.836;9.174;2023-04-06T07:10:42;16.58;;;9.18;;
48743;SDS011;34538;48.836;9.174;2023-04-06T07:13:09;17.45;;;9.45;;
48743;SDS011;34538;48.836;9.174;2023-04-06T07:15:36;29.85;;;9.30;;
48743;SDS011;34538;48.836;9.174;2023-04-06T07:18:03;17.75;;;9.77;;
48743;SDS011;34538;48.836;9.174;2023-04-06T07:20:30;16.95;;;9.40;;
48743;SDS011;34538;48.836;9.174;2023-04-06T07:22:56;15.07;;;8.93;;
48743;SDS011;34538;48.836;9.174;2023-04-06T07:25:24;14.27;;;8.50;;
48743;SDS011;34538;48.836;9.174;2023-04-06T07:27:51;21.38;;;9.90;;
48743;SDS011;34538;48.836;9.174;2023-04-06T07:30:18;14.18;;;8.88;;
48743;SDS011;34538;48.836;9.174;2023-04-06T07:32:47;18.15;;;8.98;;
48743;SDS011;34538;48.836;9.174;2023-04-06T07:35:14;18.40;;;9.18;;
48743;SDS011;34538;48.836;9.174;2023-04-06T07:37:41;19.10;;;9.13;;
48743;SDS011;34538;48.836;9.174;2023-04-06T07:40:08;14.85;;;8.93;;
48743;SDS011;34538;48.836;9.174;2023-04-06T07:42:38;15.07;;;9.02;;
48743;SDS011;34538;48.836;9.174;2023-04-06T07:45:06;13.05;;;8.07;;
48743;SDS011;34538;48.836;9.174;2023-04-06T07:47:33;14.75;;;8.80;;
48743;SDS011;34538;48.836;9.174;2023-04-06T07:50:00;17.30;;;8.63;;
48743;SDS011;34538;48.836;9.174;2023-04-06T07:52:28;14.80;;;8.48;;
48743;SDS011;34538;48.836;9.174;2023-04-06T07:54:57;13.95;;;8.10;;
48743;SDS011;34538;48.836;9.174;2023-04-06T07:57:23;14.98;;;8.68;;
48743;SDS011;34538;48.836;9.174;2023-04-06T07:59:52;16.90;;;8.65;;
48743;SDS011;34538;48.836;9.174;2023-04-06T08:02:19;17.25;;;9.50;;
48743;SDS011;34538;48.836;9.174;2023-04-06T08:04:45;17.92;;;9.00;;
48743;SDS011;34538;48.836;9.174;2023-04-06T08:07:12;13.73;;;8.43;;
48743;SDS011;34538;48.836;9.174;2023-04-06T08:09:39;13.90;;;8.40;;
48743;SDS011;34538;48.836;9.174;2023-04-06T08:12:06;13.68;;;8.35;;
48743;SDS011;34538;48.836;9.174;2023-04-06T08:14:33;14.05;;;8.07;;
48743;SDS011;34538;48.836;9.174;2023-04-06T08:17:01;16.50;;;8.05;;
48743;SDS011;34538;48.836;9.174;2023-04-06T08:19:28;13.25;;;8.18;;
48743;SDS011;34538;48.836;9.174;2023-04-06T08:21:55;12.90;;;8.25;;
48743;SDS011;34538;48.836;9.174;2023-04-06T08:24:22;16.20;;;8.10;;
48743;SDS011;34538;48.836;9.174;2023-04-06T08:26:49;14.52;;;8.25;;
48743;SDS011;34538;48.836;9.174;2023-04-06T08:29:16;13.07;;;8.02;;
48743;SDS011;34538;48.836;9.174;2023-04-06T08:31:43;12.60;;;8.25;;
48743;SDS011;34538;48.836;9.174;2023-04-06T08:34:11;9.80;;;7.45;;
48743;SDS011;34538;48.836;9.174;2023-04-06T08:36:38;14.93;;;8.15;;
48743;SDS011;34538;48.836;9.174;2023-04-06T08:39:05;13.68;;;8.00;;
48743;SDS011;34538;48.836;9.174;2023-04-06T08:41:32;12.50;;;7.63;;
48743;SDS011;34538;48.836;9.174;2023-04-06T08:44:00;14.82;;;7.85;;
48743;SDS011;34538;48.836;9.174;2023-04-06T08:46:28;11.60;;;6.82;;
48743;SDS011;34538;48.836;9.174;2023-04-06T08:48:56;12.70;;;7.85;;
48743;SDS011;34538;48.836;9.174;2023-04-06T08:51:25;12.65;;;8.32;;
48743;SDS011;34538;48.836;9.174;2023-04-06T08:53:53;14.35;;;7.43;;
48743;SDS011;34538;48.836;9.174;2023-04-06T08:56:21;11.07;;;6.75;;
48743;SDS011;34538;48.836;9.174;2023-04-06T08:58:48;12.73;;;7.95;;
48743;SDS011;34538;48.836;9.174;2023-04-06T09:01:17;13.80;;;7.55;;
48743;SDS011;34538;48.836;9.174;2023-04-06T09:03:46;11.73;;;7.05;;
48743;SDS011;34538;48.836;9.174;2023-04-06T09:06:14;12.77;;;6.63;;
48743;SDS011;34538;48.836;9.174;2023-04-06T09:08:43;11.90;;;7.07;;
48743;SDS011;34538;48.836;9.174;2023-04-06T09:11:10;15.63;;;6.60;;
48743;SDS011;34538;48.836;9.174;2023-04-06T09:13:46;11.55;;;6.68;;
48743;SDS011;34538;48.836;9.174;2023-04-06T09:16:15;12.02;;;6.38;;
48743;SDS011;34538;48.836;9.174;2023-04-06T09:18:43;10.65;;;6.63;;
48743;SDS011;34538;48.836;9.174;2023-04-06T09:21:10;10.48;;;6.15;;
48743;SDS011;34538;48.836;9.174;2023-04-06T09:23:37;12.93;;;6.25;;
48743;SDS011;34538;48.836;9.174;2023-04-06T09:26:07;12.52;;;6.80;;
48743;SDS011;34538;48.836;9.174;2023-04-06T09:28:42;9.93;;;6.30;;
48743;SDS011;34538;48.836;9.174;2023-04-06T09:31:10;9.35;;;5.90;;
48743;SDS011;34538;48.836;9.174;2023-04-06T09:33:38;12.05;;;6.10;;
48743;SDS011;34538;48.836;9.174;2023-04-06T09:36:06;10.13;;;6.50;;
48743;SDS011;34538;48.836;9.174;2023-04-06T09:38:35;13.82;;;7.78;;
48743;SDS011;34538;48.836;9.174;2023-04-06T09:41:03;8.48;;;5.57;;
48743;SDS011;34538;48.836;9.174;2023-04-06T09:43:31;10.10;;;6.22;;
48743;SDS011;34538;48.836;9.174;2023-04-06T09:45:58;10.68;;;6.20;;
48743;SDS011;34538;48.836;9.174;2023-04-06T09:48:28;11.77;;;6.20;;
48743;SDS011;34538;48.836;9.174;2023-04-06T09:50:58;10.52;;;5.72;;
48743;SDS011;34538;48.836;9.174;2023-04-06T09:53:29;10.63;;;5.65;;
48743;SDS011;34538;48.836;9.174;2023-04-06T09:56:00;10.73;;;6.33;;
48743;SDS011;34538;48.836;9.174;2023-04-06T09:58:33;11.18;;;7.15;;
48743;SDS011;34538;48.836;9.174;2023-04-06T10:01:05;8.90;;;5.70;;
48743;SDS011;34538;48.836;9.174;2023-04-06T10:03:36;9.77;;;5.72;;
48743;SDS011;34538;48.836;9.174;2023-04-06T10:06:16;11.00;;;6.13;;
48743;SDS011;34538;48.836;9.174;2023-04-06T10:08:47;10.88;;;6.50;;
48743;SDS011;34538;48.836;9.174;2023-04-06T10:11:19;11.85;;;6.55;;
48743;SDS011;34538;48.836;9.174;2023-04-06T10:13:48;13.13;;;6.63;;
48743;SDS011;34538;48.836;9.174;2023-04-06T10:16:16;11.48;;;7.45;;
48743;SDS011;34538;48.836;9.174;2023-04-06T10:18:47;10.88;;;5.97;;
48743;SDS011;34538;48.836;9.174;2023-04-06T10:21:20;10.32;;;5.65;;
48743;SDS011;34538;48.836;9.174;2023-04-06T10:23:52;9.93;;;5.95;;
48743;SDS011;34538;48.836;9.174;2023-04-06T10:26:23;10.73;;;6.57;;
48743;SDS011;34538;48.836;9.174;2023-04-06T10:28:52;9.68;;;6.35;;
48743;SDS011;34538;48.836;9.174;2023-04-06T10:31:24;9.20;;;5.90;;
48743;SDS011;34538;48.836;9.174;2023-04-06T10:33:54;8.95;;;6.00;;
48743;SDS011;34538;48.836;9.174;2023-04-06T10:36:22;11.55;;;6.68;;
48743;SDS011;34538;48.836;9.174;2023-04-06T10:38:53;11.98;;;6.30;;
48743;SDS011;34538;48.836;9.174;2023-04-06T10:41:21;11.43;;;6.32;;
48743;SDS011;34538;48.836;9.174;2023-04-06T10:43:55;10.50;;;6.45;;
48743;SDS011;34538;48.836;9.174;2023-04-06T10:46:24;10.25;;;5.95;;
48743;SDS011;34538;48.836;9.174;2023-04-06T10:48:52;10.85;;;6.18;;
48743;SDS011;34538;48.836;9.174;2023-04-06T10:51:19;10.57;;;6.13;;
48743;SDS011;34538;48.836;9.174;2023-04-06T10:53:52;9.98;;;6.55;;
48743;SDS011;34538;48.836;9.174;2023-04-06T10:56:21;8.45;;;5.65;;
48743;SDS011;34538;48.836;9.174;2023-04-06T10:58:49;11.80;;;5.82;;
48743;SDS011;34538;48.836;9.174;2023-04-06T11:01:19;8.50;;;5.40;;
48743;SDS011;34538;48.836;9.174;2023-04-06T11:03:48;9.45;;;5.85;;
48743;SDS011;34538;48.836;9.174;2023-04-06T11:06:19;9.50;;;5.70;;
48743;SDS011;34538;48.836;9.174;2023-04-06T11:08:46;11.43;;;6.05;;
48743;SDS011;34538;48.836;9.174;2023-04-06T11:11:14;10.40;;;5.15;;
48743;SDS011;34538;48.836;9.174;2023-04-06T11:13:44;9.82;;;6.00;;
48743;SDS011;34538;48.836;9.174;2023-04-06T11:16:12;10.40;;;5.88;;
48743;SDS011;34538;48.836;9.174;2023-04-06T11:18:52;9.95;;;5.53;;
48743;SDS011;34538;48.836;9.174;2023-04-06T11:21:33;10.38;;;6.00;;
48743;SDS011;34538;48.836;9.174;2023-04-06T11:24:08;9.50;;;5.60;;
48743;SDS011;34538;48.836;9.174;2023-04-06T11:26:39;10.10;;;6.40;;
48743;SDS011;34538;48.836;9.174;2023-04-06T11:29:07;11.00;;;5.93;;
48743;SDS011;34538;48.836;9.174;2023-04-06T11:31:37;8.38;;;5.40;;
48743;SDS011;34538;48.836;9.174;2023-04-06T11:34:10;9.95;;;5.82;;
48743;SDS011;34538;48.836;9.174;2023-04-06T11:36:39;11.95;;;5.72;;
48743;SDS011;34538;48.836;9.174;2023-04-06T11:39:07;10.65;;;5.70;;
48743;SDS011;34538;48.836;9.174;2023-04-06T11:41:35;8.20;;;5.13;;
48743;SDS011;34538;48.836;9.174;2023-04-06T11:44:02;8.80;;;5.78;;
48743;SDS011;34538;48.836;9.174;2023-04-06T11:46:29;8.85;;;5.88;;
48743;SDS011;34538;48.836;9.174;2023-04-06T11:48:57;9.30;;;5.40;;
48743;SDS011;34538;48.836;9.174;2023-04-06T11:51:26;8.30;;;4.93;;
48743;SDS011;34538;48.836;9.174;2023-04-06T11:53:53;9.48;;;4.97;;
48743;SDS011;34538;48.836;9.174;2023-04-06T11:56:23;8.82;;;5.57;;
48743;SDS011;34538;48.836;9.174;2023-04-06T11:58:51;10.05;;;5.30;;
48743;SDS011;34538;48.836;9.174;2023-04-06T12:01:18;8.45;;;4.90;;
48743;SDS011;34538;48.836;9.174;2023-04-06T12:03:45;7.53;;;4.53;;
48743;SDS011;34538;48.836;9.174;2023-04-06T12:06:12;9.00;;;4.65;;
48743;SDS011;34538;48.836;9.174;2023-04-06T12:08:41;10.63;;;5.05;;
48743;SDS011;34538;48.836;9.174;2023-04-06T12:11:07;7.78;;;4.53;;
48743;SDS011;34538;48.836;9.174;2023-04-06T12:13:34;7.60;;;4.93;;
48743;SDS011;34538;48.836;9.174;2023-04-06T12:16:01;9.13;;;5.22;;
48743;SDS011;34538;48.836;9.174;2023-04-06T12:18:30;9.32;;;5.47;;
48743;SDS011;34538;48.836;9.174;2023-04-06T12:20:57;8.50;;;5.25;;
48743;SDS011;34538;48.836;9.174;2023-04-06T12:23:24;8.52;;;5.10;;
48743;SDS011;34538;48.836;9.174;2023-04-06T12:25:52;8.45;;;5.00;;
48743;SDS011;34538;48.836;9.174;2023-04-06T12:28:19;9.98;;;6.18;;
48743;SDS011;34538;48.836;9.174;2023-04-06T12:30:48;10.20;;;5.20;;
48743;SDS011;34538;48.836;9.174;2023-04-06T12:33:15;8.93;;;5.07;;
48743;SDS011;34538;48.836;9.174;2023-04-06T12:35:42;8.85;;;5.25;;
48743;SDS011;34538;48.836;9.174;2023-04-06T12:38:09;9.13;;;5.22;;
48743;SDS011;34538;48.836;9.174;2023-04-06T12:40:36;8.23;;;4.95;;
48743;SDS011;34538;48.836;9.174;2023-04-06T12:43:06;9.32;;;5.78;;
48743;SDS011;34538;48.836;9.174;2023-04-06T12:45:33;8.13;;;4.55;;
48743;SDS011;34538;48.836;9.174;2023-04-06T12:48:00;9.73;;;4.90;;
48743;SDS011;34538;48.836;9.174;2023-04-06T12:50:27;7.80;;;5.10;;
48743;SDS011;34538;48.836;9.174;2023-04-06T12:52:54;10.65;;;4.22;;
48743;SDS011;34538;48.836;9.174;2023-04-06T12:55:21;7.80;;;4.63;;
48743;SDS011;34538;48.836;9.174;2023-04-06T12:57:48;9.52;;;5.32;;
48743;SDS011;34538;48.836;9.174;2023-04-06T13:00:17;10.18;;;5.82;;
48743;SDS011;34538;48.836;9.174;2023-04-06T13:02:44;7.95;;;5.05;;
48743;SDS011;34538;48.836;9.174;2023-04-06T13:05:12;9.25;;;4.65;;
48743;SDS011;34538;48.836;9.174;2023-04-06T13:07:43;7.72;;;4.97;;
48743;SDS011;34538;48.836;9.174;2023-04-06T13:10:11;8.30;;;4.70;;
48743;SDS011;34538;48.836;9.174;2023-04-06T13:12:37;8.70;;;4.88;;
48743;SDS011;34538;48.836;9.174;2023-04-06T13:15:05;7.65;;;4.40;;
48743;SDS011;34538;48.836;9.174;2023-04-06T13:17:34;8.38;;;4.70;;
48743;SDS011;34538;48.836;9.174;2023-04-06T13:20:00;7.82;;;4.78;;
48743;SDS011;34538;48.836;9.174;2023-04-06T13:22:28;8.20;;;4.32;;
48743;SDS011;34538;48.836;9.174;2023-04-06T13:24:55;6.53;;;4.05;;
48743;SDS011;34538;48.836;9.174;2023-04-06T13:27:22;8.70;;;4.53;;
48743;SDS011;34538;48.836;9.174;2023-04-06T13:29:49;7.22;;;4.80;;
48743;SDS011;34538;48.836;9.174;2023-04-06T13:32:16;8.10;;;4.30;;
48743;SDS011;34538;48.836;9.174;2023-04-06T13:34:44;9.82;;;4.47;;
48743;SDS011;34538;48.836;9.174;2023-04-06T13:37:13;10.35;;;5.03;;
48743;SDS011;34538;48.836;9.174;2023-04-06T13:39:39;10.02;;;5.10;;
48743;SDS011;34538;48.836;9.174;2023-04-06T13:42:06;7.72;;;4.72;;
48743;SDS011;34538;48.836;9.174;2023-04-06T13:44:35;8.70;;;4.90;;
48743;SDS011;34538;48.836;9.174;2023-04-06T13:47:01;7.90;;;4.28;;
48743;SDS011;34538;48.836;9.174;2023-04-06T13:49:28;9.13;;;4.53;;
48743;SDS011;34538;48.836;9.174;2023-04-06T13:51:56;7.20;;;4.25;;
48743;SDS011;34538;48.836;9.174;2023-04-06T13:54:23;8.50;;;4.55;;
48743;SDS011;34538;48.836;9.174;2023-04-06T13:56:52;8.77;;;5.10;;
48743;SDS011;34538;48.836;9.174;2023-04-06T13:59:19;8.95;;;4.43;;
48743;SDS011;34538;48.836;9.174;2023-04-06T14:01:45;7.53;;;4.40;;
48743;SDS011;34538;48.836;9.174;2023-04-06T14:04:13;7.95;;;4.57;;
48743;SDS011;34538;48.836;9.174;2023-04-06T14:06:40;8.48;;;4.70;;
48743;SDS011;34538;48.836;9.174;2023-04-06T14:09:08;8.13;;;5.03;;
48743;SDS011;34538;48.836;9.174;2023-04-06T14:11:36;8.27;;;4.22;;
48743;SDS011;34538;48.836;9.174;2023-04-06T14:14:03;8.52;;;4.72;;
48743;SDS011;34538;48.836;9.174;2023-04-06T14:16:30;7.10;;;4.35;;
48743;SDS011;34538;48.836;9.174;2023-04-06T14:18:56;7.25;;;4.30;;
48743;SDS011;34538;48.836;9.174;2023-04-06T14:21:24;7.50;;;4.68;;
48743;SDS011;34538;48.836;9.174;2023-04-06T14:23:51;8.05;;;4.22;;
48743;SDS011;34538;48.836;9.174;2023-04-06T14:26:20;7.82;;;4.30;;
48743;SDS011;34538;48.836;9.174;2023-04-06T14:28:47;7.10;;;4.60;;
48743;SDS011;34538;48.836;9.174;2023-04-06T14:31:15;7.88;;;4.68;;
48743;SDS011;34538;48.836;9.174;2023-04-06T14:33:42;7.03;;;4.18;;
48743;SDS011;34538;48.836;9.174;2023-04-06T14:36:09;7.95;;;4.68;;
48743;SDS011;34538;48.836;9.174;2023-04-06T14:38:36;6.50;;;4.28;;
48743;SDS011;34538;48.836;9.174;2023-04-06T14:41:04;7.97;;;4.55;;
48743;SDS011;34538;48.836;9.174;2023-04-06T14:43:32;6.55;;;4.38;;
48743;SDS011;34538;48.836;9.174;2023-04-06T14:45:59;7.28;;;4.30;;
48743;SDS011;34538;48.836;9.174;2023-04-06T14:48:26;8.65;;;4.38;;
48743;SDS011;34538;48.836;9.174;2023-04-06T14:50:54;7.78;;;4.40;;
48743;SDS011;34538;48.836;9.174;2023-04-06T14:53:21;8.68;;;4.53;;